Latest Coastal Weather Observations for Cape Naturaliste

IDW60701

Issued at 9:15 pm WST Thursday 30 October 2014 (issued every 10 minutes, with the page automatically refreshed every 10 minutes)

About coastal observations | Map of coastal stations | Coastal observations for WA | Marine services | Other Formats
Station Details ID: 009519 Name: CAPE NATURALISTE Lat: -33.54 Lon: 115.02 Height: 109.0 m
Data from the previous 72 hours. | See also: Recent months at Cape Naturaliste
Date/Time
WST
Temp

°C
Wind Pressure Rain
since 9am
mm
Weather Cloud Vis
km
Sea
Height
m
Swell
Dir
 
Speed
knots
Gust
knots
hPa Trend Height
m
Period
s
Dir
30/09:00pm 16.3 W 19 23 1013.9 - 0.0 - - - - - - -
30/08:30pm 16.0 WSW 19 24 1014.0 - 0.0 - - - - - - -
30/08:00pm 16.1 W 20 25 1013.9 - 0.0 - - - - - - -
30/07:30pm 15.4 W 16 21 1013.8 - 0.0 - - - - - - -
30/07:13pm 16.7 W 18 29 1013.7 - 0.0 - - - - - - -
30/07:00pm 16.5 WSW 17 22 1013.5 - 0.0 - - - - - - -
30/06:30pm 16.4 W 18 24 1013.3 - 0.0 - - - - - - -
30/06:00pm 16.7 W 20 26 1013.2 - 0.0 - - - - - - -
30/05:30pm 16.9 WSW 18 23 1013.0 - 0.0 - - - - - - -
30/05:00pm 17.4 WSW 17 23 1013.0 - 0.0 - - - - - - -
30/04:30pm 18.3 WSW 17 21 1013.0 - 0.0 - - - - - - -
30/04:00pm 17.9 W 19 25 1012.9 - 0.0 - - - - - - -
30/03:30pm 18.0 W 16 21 1012.9 - 0.0 - - - - - - -
30/03:00pm 19.0 W 17 22 1013.0 - 0.0 - - - - - - -
30/02:30pm 17.2 W 15 19 1013.3 - 0.0 - - - - - - -
30/02:00pm 18.2 W 16 21 1013.4 - 0.0 - - - - - - -
30/01:30pm 20.1 WSW 14 19 1013.4 - 0.0 - - - - - - -
30/01:00pm 17.2 W 17 24 1013.7 - 0.0 - - - - - - -
30/12:30pm 19.3 W 15 19 1013.5 - 0.0 - - - - - - -
30/12:00pm 19.6 W 17 22 1013.7 - 0.0 - - - - - - -
30/11:30am 18.2 WSW 12 16 1013.9 - 0.0 - - - - - - -
30/11:00am 18.4 WSW 10 14 1014.0 - 0.0 - - - - - - -
30/10:30am 18.8 WSW 9 13 1014.2 - 0.0 - - - - - - -
30/10:00am 19.0 W 12 15 1014.6 - 0.0 - - - - - - -
30/09:30am 17.8 WSW 12 16 1014.5 - 0.0 - - - - - - -
30/09:00am 17.3 WSW 9 14 1014.4 - 0.0 - - - - - - -
30/08:30am 17.5 SW 7 10 1014.4 - 0.0 - - - - - - -
30/08:00am 16.8 SSW 6 9 1014.4 - 0.0 - - - - - - -
30/07:30am 16.1 SSW 5 9 1014.5 - 0.0 - - - - - - -
30/07:00am 15.4 S 6 8 1014.5 - 0.0 - - - - - - -
30/06:30am 14.8 S 6 8 1014.6 - 0.0 - - - - - - -
30/06:00am 14.0 SSE 7 10 1014.5 - 0.0 - - - - - - -
30/05:30am 12.7 SSE 8 9 1014.5 - 0.0 - - - - - - -
30/05:00am 12.7 SSE 8 10 1014.6 - 0.0 - - - - - - -
30/04:30am 12.8 SSE 9 11 1014.5 - 0.0 - - - - - - -
30/04:00am 12.2 S 9 11 1014.5 - 0.0 - - - - - - -
30/03:30am 12.0 S 10 11 1014.6 - 0.0 - - - - - - -
30/03:00am 12.5 S 11 14 1014.3 - 0.0 - - - - - - -
30/02:30am 12.6 S 11 15 1014.4 - 0.0 - - - - - - -
30/02:00am 12.9 S 13 16 1014.3 - 0.0 - - - - - - -
30/01:30am 12.9 S 12 15 1014.4 - 0.0 - - - - - - -
30/01:00am 13.1 S 14 17 1014.6 - 0.0 - - - - - - -
30/12:30am 13.2 S 14 18 1014.6 - 0.0 - - - - - - -
30/12:00am 12.9 S 12 16 1014.8 - 0.0 - - - - - - -
 
Date/Time
WST
Temp

°C
Wind Pressure Rain
since 9am
mm
Weather Cloud Vis
km
Sea
Height
m
Swell
Dir
 
Speed
knots
Gust
knots
hPa Trend Height
m
Period
s
Dir
29/11:30pm 12.9 S 12 18 1015.0 - 0.0 - - - - - - -
29/11:00pm 13.0 S 10 15 1015.1 - 0.0 - - - - - - -
29/10:30pm 13.2 S 11 16 1015.1 - 0.0 - - - - - - -
29/10:00pm 13.5 S 13 18 1015.1 - 0.0 - - - - - - -
29/09:30pm 13.9 S 16 22 1015.2 - 0.0 - - - - - - -
29/09:00pm 14.1 S 16 23 1015.0 - 0.0 - - - - - - -
29/08:30pm 14.4 S 18 23 1014.9 - 0.0 - - - - - - -
29/08:00pm 14.9 S 17 24 1014.4 - 0.0 - - - - - - -
29/07:30pm 15.3 S 12 17 1014.2 - 0.0 - - - - - - -
29/07:00pm 15.7 S 12 16 1014.0 - 0.0 - - - - - - -
29/06:30pm 16.6 SSW 20 27 1013.5 - 0.0 - - - - - - -
29/06:00pm 17.1 SSW 20 28 1013.2 - 0.0 - - - - - - -
29/05:30pm 17.7 SSW 21 28 1013.3 - 0.0 - - - - - - -
29/05:17pm 18.1 SSW 22 32 1013.3 - 0.0 - - - - - - -
29/05:00pm 17.5 SSW 22 31 1013.2 - 0.0 - - - - - - -
29/04:30pm 17.6 SSW 22 32 1013.3 - 0.0 - - - - - - -
29/04:10pm 18.3 SSW 22 32 1013.3 - 0.0 - - - - - - -
29/04:00pm 19.2 SSW 22 31 1013.5 - 0.0 - - - - - - -
29/03:30pm 19.6 SSW 22 29 1013.5 - 0.0 - - - - - - -
29/03:12pm 19.6 SSW 22 32 1013.5 - 0.0 - - - - - - -
29/03:00pm 19.8 SSW 21 28 1013.7 - 0.0 - - - - - - -
29/02:30pm 19.7 SSW 20 28 1013.7 - 0.0 - - - - - - -
29/02:00pm 20.1 SSW 22 29 1013.8 - 0.0 - - - - - - -
29/01:33pm 19.8 SSW 22 32 1013.8 - 0.0 - - - - - - -
29/01:30pm 19.3 SSW 23 32 1013.8 - 0.0 - - - - - - -
29/01:06pm 21.1 SSW 20 30 1014.1 - 0.0 - - - - - - -
29/01:00pm 21.4 SSW 21 30 1014.1 - 0.0 - - - - - - -
29/12:35pm 20.9 SSW 19 29 1014.2 - 0.0 - - - - - - -
29/12:30pm 21.2 SSW 18 25 1014.3 - 0.0 - - - - - - -
29/12:00pm 19.8 SSW 16 21 1014.5 - 0.0 - - - - - - -
29/11:30am 19.9 SSW 17 24 1014.7 - 0.0 - - - - - - -
29/11:03am 18.7 SSW 18 28 1015.3 - 0.0 - - - - - - -
29/11:00am 19.2 SSW 19 25 1015.3 - 0.0 - - - - - - -
29/10:30am 19.3 SSW 19 28 1015.7 - 0.0 - - - - - - -
29/10:00am 18.0 SSW 20 26 1015.7 - 0.0 - - - - - - -
29/09:30am 19.1 SSW 16 22 1015.9 - 0.0 - - - - - - -
29/09:00am 18.5 S 15 20 1016.0 - 0.0 - - - - - - -
29/08:30am 17.8 SSW 15 20 1015.8 - 0.0 - - - - - - -
29/08:00am 16.8 S 13 17 1015.8 - 0.0 - - - - - - -
29/07:30am 14.8 SSW 12 16 1015.8 - 0.0 - - - - - - -
29/07:00am 13.4 SSW 9 11 1015.5 - 0.0 - - - - - - -
29/06:30am 13.5 SSW 10 12 1015.4 - 0.0 - - - - - - -
29/06:00am 12.5 S 8 13 1015.4 - 0.0 - - - - - - -
29/05:30am 12.1 S 9 13 1015.1 - 0.0 - - - - - - -
29/05:00am 11.9 S 10 13 1015.1 - 0.0 - - - - - - -
29/04:30am 11.7 S 9 12 1015.1 - 0.0 - - - - - - -
29/04:00am 11.8 SSW 10 13 1015.1 - 0.0 - - - - - - -
29/03:30am 12.1 S 8 11 1015.1 - 0.0 - - - - - - -
29/03:00am 12.1 S 10 14 1014.9 - 0.0 - - - - - - -
29/02:30am 12.1 S 11 17 1014.9 - 0.0 - - - - - - -
29/02:00am 12.1 S 11 15 1015.0 - 0.0 - - - - - - -
29/01:30am 12.3 S 9 12 1015.3 - 0.0 - - - - - - -
29/01:00am 12.4 S 5 7 1015.6 - 0.0 - - - - - - -
29/12:30am 12.6 S 8 11 1015.6 - 0.0 - - - - - - -
29/12:00am 13.1 SSE 8 12 1015.6 - 0.0 - - - - - - -
 
Date/Time
WST
Temp

°C
Wind Pressure Rain
since 9am
mm
Weather Cloud Vis
km
Sea
Height
m
Swell
Dir
 
Speed
knots
Gust
knots
hPa Trend Height
m
Period
s
Dir
28/11:30pm 13.5 S 13 17 1015.1 - 0.0 - - - - - - -
28/11:00pm 13.5 S 10 17 1015.1 - 0.0 - - - - - - -
28/10:30pm 13.7 S 14 20 1014.8 - 0.0 - - - - - - -
28/10:00pm 14.0 S 12 19 1015.2 - 0.0 - - - - - - -
28/09:30pm 14.6 S 13 19 1015.3 - 0.0 - - - - - - -
28/09:00pm 14.6 S 11 15 1015.6 - 0.0 - - - - - - -
28/08:30pm 15.1 SSW 10 14 1015.5 - 0.0 - - - - - - -
28/08:00pm 15.3 S 12 16 1015.3 - 0.0 - - - - - - -
28/07:30pm 16.1 SSW 13 18 1015.2 - 0.0 - - - - - - -
28/07:00pm 17.0 SSW 14 19 1015.0 - 0.0 - - - - - - -
28/06:30pm 18.2 SSW 14 19 1014.6 - 0.0 - - - - - - -
28/06:00pm 18.9 SSW 16 21 1014.3 - 0.0 - - - - - - -
28/05:30pm 19.2 SSW 17 23 1014.3 - 0.0 - - - - - - -
28/05:00pm 19.5 SSW 18 25 1014.3 - 0.0 - - - - - - -
28/04:30pm 19.5 SSW 20 27 1014.1 - 0.0 - - - - - - -
28/04:00pm 19.9 SSW 19 27 1014.3 - 0.0 - - - - - - -
28/03:30pm 19.0 SSW 19 27 1014.6 - 0.0 - - - - - - -
28/03:00pm 20.2 SSW 19 26 1014.8 - 0.0 - - - - - - -
28/02:30pm 20.8 SSW 21 27 1015.1 - 0.0 - - - - - - -
28/02:00pm 20.5 SSW 19 26 1015.4 - 0.0 - - - - - - -
28/01:30pm 20.7 SSW 21 27 1015.4 - 0.0 - - - - - - -
28/01:00pm 20.6 SSW 19 25 1015.7 - 0.0 - - - - - - -
28/12:30pm 20.5 SSW 17 24 1016.0 - 0.0 - - - - - - -
28/12:00pm 21.1 SSW 13 19 1016.4 - 0.0 - - - - - - -
28/11:30am 20.3 SSW 12 16 1016.9 - 0.0 - - - - - - -
28/11:00am 20.6 SW 11 15 1017.3 - 0.0 - - - - - - -
28/10:30am 21.3 SW 8 11 1017.9 - 0.0 - - - - - - -
28/10:00am 21.4 ESE 7 11 1018.2 - 0.0 - - - - - - -
28/09:30am 19.5 SE 10 13 1018.2 - 0.0 - - - - - - -
28/09:00am 18.1 ESE 11 14 1018.5 - 0.0 - - - - - - -
28/08:30am 16.1 SE 14 17 1018.5 - 0.0 - - - - - - -
28/08:00am 15.0 SE 15 18 1018.4 - 0.0 - - - - - - -
28/07:30am 14.0 SE 17 20 1018.6 - 0.0 - - - - - - -
28/07:00am 12.8 SE 16 20 1018.8 - 0.0 - - - - - - -
28/06:30am 11.7 SE 17 23 1018.8 - 0.0 - - - - - - -
28/06:00am 11.3 SE 16 20 1018.7 - 0.0 - - - - - - -
28/05:30am 11.0 SE 15 20 1018.5 - 0.0 - - - - - - -
28/05:00am 11.2 SE 16 20 1018.6 - 0.0 - - - - - - -
28/04:30am 11.0 SE 16 21 1018.8 - 0.0 - - - - - - -
28/04:00am 11.0 SE 16 19 1019.1 - 0.0 - - - - - - -
28/03:30am 10.8 SE 15 19 1019.1 - 0.0 - - - - - - -
28/03:00am 10.8 SE 15 19 1019.2 - 0.0 - - - - - - -
28/02:30am 10.9 SE 15 19 1019.2 - 0.0 - - - - - - -
28/02:00am 11.0 SE 16 19 1019.3 - 0.0 - - - - - - -
28/01:30am 10.9 SE 13 18 1019.6 - 0.0 - - - - - - -
28/01:00am 10.7 SSE 10 14 1020.0 - 0.0 - - - - - - -
28/12:30am 10.9 SSE 8 10 1020.5 - 0.0 - - - - - - -
28/12:00am 11.2 SSE 9 11 1020.7 - 0.0 - - - - - - -
 
Date/Time
WST
Temp

°C
Wind Pressure Rain
since 9am
mm
Weather Cloud Vis
km
Sea
Height
m
Swell
Dir
 
Speed
knots
Gust
knots
hPa Trend Height
m
Period
s
Dir
27/11:30pm 11.7 SSE 10 14 1020.6 - 0.0 - - - - - - -
27/11:00pm 12.0 S 10 15 1020.7 - 0.0 - - - - - - -
27/10:30pm 12.1 S 10 13 1020.9 - 0.0 - - - - - - -
27/10:00pm 12.2 S 10 14 1021.1 - 0.0 - - - - - - -
27/09:30pm 12.6 S 12 16 1021.1 - 0.0 - - - - - - -

Other Formats:

Comma delimited format used in spreadsheet applications
http://www.bom.gov.au/fwo/IDW60701/IDW60701.94600.axf

JavaScript Object Notation format (JSON) in row-major order
http://www.bom.gov.au/fwo/IDW60701/IDW60701.94600.json